createdAt,value
2022-08-12T00:04:59.897Z,20.55
2022-08-12T00:10:23.585Z,19.63
2022-08-12T00:15:46.252Z,18.93
2022-08-12T00:21:08.397Z,18.34
2022-08-12T00:26:34.134Z,17.96
2022-08-12T00:31:55.872Z,19.11
2022-08-12T00:37:17.618Z,22.08
2022-08-12T00:42:24.236Z,22.11
2022-08-12T00:47:27.420Z,20.34
2022-08-12T00:52:31.072Z,19.33
2022-08-12T00:57:37.239Z,18.52
2022-08-12T01:02:47.427Z,17.94
2022-08-12T01:08:10.793Z,18.78
2022-08-12T01:13:19.407Z,21.66
2022-08-12T01:18:28.335Z,22.01
2022-08-12T01:24:30.327Z,20.15
2022-08-12T01:29:36.597Z,18.83
2022-08-12T01:34:57.019Z,18.13
2022-08-12T01:40:34.914Z,17.52
2022-08-12T01:45:29.855Z,18.45
2022-08-12T01:52:04.630Z,21.19
2022-08-12T01:56:49.488Z,21.17
2022-08-12T02:01:57.092Z,19.28
2022-08-12T02:07:55.833Z,18.22
2022-08-12T02:13:52.101Z,17.47
2022-08-12T02:19:31.729Z,16.93
2022-08-12T02:24:42.671Z,18.07
2022-08-12T02:29:46.142Z,20.92
2022-08-12T02:34:50.595Z,21.00
2022-08-12T02:40:00.217Z,19.14
2022-08-12T02:45:09.230Z,17.95
2022-08-12T02:50:18.019Z,17.29
2022-08-12T02:55:34.290Z,16.85
2022-08-12T03:00:40.622Z,17.85
2022-08-12T03:06:16.073Z,20.72
2022-08-12T03:12:05.262Z,21.01
2022-08-12T03:17:24.559Z,18.99
2022-08-12T03:22:32.359Z,17.86
2022-08-12T03:27:51.952Z,17.21
2022-08-12T03:32:58.539Z,16.70
2022-08-12T03:38:08.780Z,17.62
2022-08-12T03:43:42.657Z,20.58
2022-08-12T03:49:05.013Z,20.69
2022-08-12T04:00:58.819Z,17.59
2022-08-12T04:06:02.145Z,17.10
2022-08-12T04:11:27.029Z,16.79
2022-08-12T04:16:33.707Z,18.16
2022-08-12T04:21:38.289Z,21.04
2022-08-12T04:27:02.799Z,21.04
2022-08-12T04:32:07.549Z,19.44
2022-08-12T04:37:12.815Z,18.39
2022-08-12T04:42:16.520Z,17.68
2022-08-12T04:47:22.268Z,18.37
2022-08-12T04:52:34.391Z,21.19
2022-08-12T04:57:38.979Z,21.73
2022-08-12T05:02:43.014Z,20.13
2022-08-12T05:07:54.683Z,19.12
2022-08-12T05:13:02.917Z,19.83
2022-08-12T05:18:20.401Z,22.55
2022-08-12T05:23:23.898Z,23.60
2022-08-12T05:28:30.523Z,22.33
2022-08-12T05:33:38.713Z,20.99
2022-08-12T05:38:56.550Z,19.99
2022-08-12T05:44:08.034Z,20.77
2022-08-12T05:49:11.677Z,23.45
2022-08-12T05:54:16.709Z,23.89
2022-08-12T05:59:21.861Z,22.42
2022-08-12T06:04:25.076Z,21.46
2022-08-12T06:09:31.127Z,21.01
2022-08-12T06:14:38.739Z,20.80
2022-08-12T06:20:27.229Z,20.71
2022-08-12T06:25:07.908Z,20.68
2022-08-12T06:30:18.559Z,21.80
2022-08-12T06:35:49.513Z,24.78
2022-08-12T06:41:20.400Z,24.39
2022-08-12T06:46:27.118Z,23.28
2022-08-12T06:51:32.646Z,22.75
2022-08-12T07:02:00.083Z,22.52
2022-08-12T07:07:05.831Z,22.60
2022-08-12T07:12:17.360Z,22.70
2022-08-12T07:17:20.558Z,22.83
2022-08-12T07:22:23.751Z,23.02
2022-08-12T07:27:27.677Z,23.22
2022-08-12T07:32:30.945Z,23.45
2022-08-12T07:37:35.444Z,23.65
2022-08-12T07:42:41.764Z,23.87
2022-08-12T07:47:45.346Z,24.02
2022-08-12T07:52:49.146Z,24.21
2022-08-12T07:57:59.503Z,24.44
2022-08-12T08:03:02.940Z,24.66
2022-08-12T08:08:25.299Z,24.92
2022-08-12T08:13:28.514Z,25.23
2022-08-12T08:18:33.376Z,25.38
2022-08-12T08:23:57.576Z,25.47
2022-08-12T08:29:03.120Z,25.61
2022-08-12T08:34:49.371Z,25.79
2022-08-12T08:39:32.177Z,25.94
2022-08-12T08:44:39.633Z,26.08
2022-08-12T08:49:42.805Z,26.28
2022-08-12T08:54:47.931Z,26.49
2022-08-12T08:59:51.739Z,26.67
2022-08-12T09:05:13.858Z,26.88
2022-08-12T09:10:30.718Z,26.97
2022-08-12T09:15:36.761Z,26.98
2022-08-12T09:20:42.363Z,27.18
2022-08-12T09:25:48.653Z,27.44
2022-08-12T09:30:54.115Z,27.53
2022-08-12T09:36:05.634Z,27.76
2022-08-12T09:42:33.817Z,27.85
2022-08-12T09:46:34.456Z,27.93
2022-08-12T09:51:43.715Z,28.21
2022-08-12T09:56:57.994Z,28.65
2022-08-12T10:02:45.959Z,29.09
2022-08-12T10:07:40.283Z,29.30
2022-08-12T10:13:09.284Z,29.23
2022-08-12T10:18:14.918Z,29.15
2022-08-12T10:23:18.575Z,29.32
2022-08-12T10:28:40.216Z,29.70
2022-08-12T10:33:54.922Z,30.11
2022-08-12T10:40:01.627Z,30.17
2022-08-12T10:44:36.724Z,29.96
2022-08-12T10:50:02.279Z,29.74
2022-08-12T10:55:03.289Z,30.07
2022-08-12T11:00:34.600Z,30.44
2022-08-12T11:07:06.646Z,30.68
2022-08-12T11:10:58.208Z,30.76
2022-08-12T11:16:19.103Z,30.80
2022-08-12T11:21:56.473Z,31.09
2022-08-12T11:26:52.024Z,31.17
2022-08-12T11:32:02.123Z,30.96
2022-08-12T11:37:25.756Z,30.95
2022-08-12T11:42:32.398Z,30.95
2022-08-12T11:47:50.003Z,31.31
2022-08-12T11:52:59.050Z,31.77
2022-08-12T11:58:39.366Z,32.04
2022-08-12T12:03:26.515Z,32.01
2022-08-12T12:08:52.956Z,32.13
2022-08-12T12:14:08.891Z,32.49
2022-08-12T12:19:14.499Z,32.80
2022-08-12T12:24:21.879Z,32.80
2022-08-12T12:30:13.574Z,32.45
2022-08-12T12:35:44.438Z,32.24
2022-08-12T12:40:14.573Z,32.18
2022-08-12T12:45:19.460Z,32.45
2022-08-12T12:50:35.272Z,32.65
2022-08-12T12:55:39.847Z,32.96
2022-08-12T13:00:51.033Z,33.51
2022-08-12T13:05:55.792Z,34.08
2022-08-12T13:11:04.362Z,34.17
2022-08-12T13:16:14.262Z,34.39
2022-08-12T13:21:32.800Z,34.85
2022-08-12T13:26:38.044Z,34.87
2022-08-12T13:32:13.530Z,34.46
2022-08-12T13:37:09.193Z,34.25
2022-08-12T13:42:14.586Z,34.01
2022-08-12T13:47:20.953Z,33.83
2022-08-12T13:52:25.708Z,34.30
2022-08-12T13:57:44.454Z,34.43
2022-08-12T14:02:53.330Z,34.16
2022-08-12T14:08:07.852Z,33.81
2022-08-12T14:13:16.933Z,33.81
2022-08-12T14:18:45.587Z,34.33
2022-08-12T14:24:04.726Z,34.55
2022-08-12T14:29:11.934Z,34.49
2022-08-12T14:34:35.206Z,34.53
2022-08-12T14:39:39.206Z,34.72
2022-08-12T14:44:58.039Z,34.43
2022-08-12T14:50:58.836Z,33.43
2022-08-12T15:01:15.847Z,32.68
2022-08-12T15:06:39.453Z,32.67
2022-08-12T15:11:55.751Z,32.92
2022-08-12T15:17:07.506Z,33.28
2022-08-12T15:22:37.519Z,33.55
2022-08-12T15:28:04.109Z,33.77
2022-08-12T15:32:58.563Z,33.59
2022-08-12T15:38:11.192Z,33.33
2022-08-12T15:43:51.658Z,32.94
2022-08-12T15:48:46.677Z,32.93
2022-08-12T15:54:05.858Z,32.91
2022-08-12T15:59:51.487Z,32.90
2022-08-12T16:04:52.735Z,32.45
2022-08-12T16:10:05.500Z,31.77
2022-08-12T16:15:14.901Z,31.26
2022-08-12T16:20:32.996Z,30.94
2022-08-12T16:26:03.005Z,30.77
2022-08-12T16:31:05.802Z,30.72
2022-08-12T16:36:18.809Z,30.69
2022-08-12T16:41:23.135Z,30.61
2022-08-12T16:46:32.515Z,30.67
2022-08-12T16:51:40.548Z,30.78
2022-08-12T16:56:55.006Z,30.83
2022-08-12T17:02:00.884Z,30.72
2022-08-12T17:07:10.994Z,30.45
2022-08-12T17:12:23.961Z,30.07
2022-08-12T17:17:39.162Z,29.64
2022-08-12T17:22:43.960Z,29.35
2022-08-12T17:27:57.515Z,29.01
2022-08-12T17:33:06.751Z,28.63
2022-08-12T17:38:14.119Z,28.25
2022-08-12T17:43:55.616Z,27.98
2022-08-12T17:48:55.350Z,27.82
2022-08-12T17:54:10.131Z,27.61
2022-08-12T17:59:47.869Z,27.38
2022-08-12T18:05:05.051Z,27.21
2022-08-12T18:10:12.081Z,27.03
2022-08-12T18:15:26.146Z,26.87
2022-08-12T18:20:45.036Z,26.72
2022-08-12T18:26:15.551Z,26.50
2022-08-12T18:31:44.407Z,26.25
2022-08-12T18:36:55.587Z,26.01
2022-08-12T18:42:00.146Z,25.80
2022-08-12T18:47:09.893Z,25.60
2022-08-12T18:52:17.874Z,25.41
2022-08-12T18:57:45.699Z,25.30
2022-08-12T19:02:53.355Z,25.16
2022-08-12T19:08:01.223Z,25.03
2022-08-12T19:13:25.531Z,24.95
2022-08-12T19:18:40.389Z,24.88
2022-08-12T19:23:44.537Z,24.78
2022-08-12T19:28:49.703Z,24.65
2022-08-12T19:34:25.435Z,24.53
2022-08-12T19:39:22.918Z,24.37
2022-08-12T19:44:28.899Z,24.17
2022-08-12T19:49:32.219Z,23.98
2022-08-12T19:54:37.225Z,23.81
2022-08-12T19:59:43.063Z,23.67
2022-08-12T20:06:06.791Z,23.57
2022-08-12T20:10:36.301Z,23.41
2022-08-12T20:15:44.906Z,23.26
2022-08-12T20:20:48.847Z,23.18
2022-08-12T20:26:01.879Z,23.06
2022-08-12T20:31:08.800Z,22.97
2022-08-12T20:36:41.611Z,22.91
2022-08-12T20:41:41.493Z,22.80
2022-08-12T20:46:45.425Z,22.65
2022-08-12T20:51:55.366Z,22.54
2022-08-12T20:57:00.960Z,22.49
2022-08-12T21:02:05.815Z,22.40
2022-08-12T21:07:11.395Z,22.38
2022-08-12T21:12:28.783Z,22.34
2022-08-12T21:18:08.715Z,22.26
2022-08-12T21:23:06.022Z,22.17
2022-08-12T21:28:09.546Z,22.10
2022-08-12T21:33:14.768Z,22.07
2022-08-12T21:38:20.402Z,22.03
2022-08-12T21:43:43.638Z,22.02
2022-08-12T21:48:49.797Z,22.03
2022-08-12T21:54:07.123Z,21.99
2022-08-12T21:59:14.526Z,21.96
2022-08-12T22:04:37.895Z,21.93
2022-08-12T22:09:42.883Z,21.90
2022-08-12T22:14:48.821Z,21.87
2022-08-12T22:19:52.089Z,21.82
2022-08-12T22:24:58.421Z,21.78
2022-08-12T22:30:20.517Z,21.75
2022-08-12T22:35:56.575Z,21.71
2022-08-12T22:41:27.657Z,21.65
2022-08-12T22:46:34.856Z,21.58
2022-08-12T22:51:59.696Z,21.50
2022-08-12T22:57:02.743Z,21.45
2022-08-12T23:02:07.737Z,21.37
2022-08-12T23:07:14.630Z,21.28
2022-08-12T23:12:41.169Z,21.25
2022-08-12T23:17:50.347Z,21.22
2022-08-12T23:23:03.058Z,21.19
2022-08-12T23:28:29.998Z,21.11
2022-08-12T23:34:00.773Z,21.03
2022-08-12T23:39:01.726Z,22.30
2022-08-12T23:44:06.922Z,24.97
2022-08-12T23:49:55.777Z,25.07
2022-08-12T23:54:38.990Z,23.36
2022-08-12T23:59:55.506Z,22.40
